AirNav   Air Wisconsin Up To $57,000 Bonus
 
 1624 users online  

6CA1 Triple R Ranch Airport
Macdoel, California, USA

GOING TO MACDOEL?


FAA INFORMATION EFFECTIVE 04 NOVEMBER 2021

Location

FAA Identifier: 6CA1
Lat/Long: 41-44-33.5470N 121-52-42.0080W
41-44.559117N 121-52.700133W
41.7426519,-121.8783356
(estimated)
Elevation: 4380 ft. / 1335 m (estimated)
Variation: 18E (1985)
From city: 8 miles SE of MACDOEL, CA
Time zone: UTC -7 (UTC -8 during Standard Time)
Zip code: 96058

Airport Operations

Airport use: Private use. Permission required prior to landing
Activation date: 12/1955
Control tower: no
ARTCC: SEATTLE CENTER
FSS: RANCHO MURIETA FLIGHT SERVICE STATION
Attendance: UNATNDD
Wind indicator: yes
Segmented circle: no

Nearby radio navigation aids

VOR radial/distance  VOR name  Freq  Var
LMTr178/25.5KLAMATH FALLS VORTAC115.9017E

 
NDB name  Hdg/Dist  Freq  Var  ID
MONTAGUE073/27.040415EMOG -- --- --.

Airport Services

Runway Information

Runway 15/33

Dimensions: 2300 x 40 ft. / 701 x 12 m
Surface: turf
RUNWAY 15  RUNWAY 33
Traffic pattern: leftleft

Airport Ownership and Management from official FAA records

Ownership: Privately-owned
Owner: FRANCES F. RYAN
PO BOX 44
MACDOEL, CA 96058
Phone (530) 398-4152
Manager: MARK G. RYAN
PO BOX 44
MACDOEL, CA 96058
Phone (530) 398-4152
MARK RYAN - 831-421-0426

Additional Remarks

FOR CD CTC SEATTLE ARTCC AT 253-351-3694.

Instrument Procedures

There are no published instrument procedures at 6CA1.

Some nearby airports with instrument procedures:

KLMT - Crater Lake-Klamath Regional Airport (26 nm N)
KSIY - Siskiyou County Airport (26 nm W)
O46 - Weed Airport (30 nm SW)
KMFR - Rogue Valley International - Medford Airport (58 nm NW)
KAAT - Alturas Municipal Airport (61 nm E)
 
Loc | Ops | Rwys | IFR | FBO | Links
Com | Nav | Svcs | Stats | Notes
Area around 6CA1 (Triple R Ranch Airport)
 
Road maps at: MapQuest Bing Google
 
Aerial photo
WARNING: Photo may not be current or correct
Aerial photo of 6CA1 (Triple R Ranch Airport)
Do you have a better or more recent aerial photo of Triple R Ranch Airport that you would like to share? If so, please send us your photo.

 
Sectional chart

 
Airport distance calculator
Flying to Triple R Ranch Airport? Find the distance to fly.

From to 6CA1

Sunrise and sunset
Times for 29-Nov-2021
 Local
(UTC-8)
 Zulu
(UTC)
Morning civil twilight06:4314:43
Sunrise07:1415:14
Sunset16:3800:38
Evening civil twilight17:0801:08

Current date and time
Zulu (UTC)  30-Nov-2021 00:15:10
Local (UTC-8)  29-Nov-2021 16:15:10
 
METAR
KLMT 
25nm N 
292353Z 32006KT 10SM CLR 08/04 A3029 RMK AO2 SLP264 T00830039 10100 20011 56006
KSIY 
26nm W 
292353Z AUTO 28004KT 10SM CLR 08/05 A3029 RMK AO2 SLP277 T00780050 10089 20022 56007
KMHS 
32nm SW 
292356Z AUTO 00000KT 10SM CLR 11/04 A3025 RMK AO2 SLP266 T01110039 10178 20100 51004
TAF
KLMT 
25nm N 
292043Z 2921/3018 00000KT P6SM SCT002 FM292130 00000KT P6SM SKC FM300900 00000KT 2SM BR BCFG BKN002 FM301700 00000KT P6SM SKC
NOTAMs
Click for the latest NOTAMs
NOTAMs are issued by the DoD/FAA and will open in a separate window not controlled by AirNav.

 

 
 

Would you like to see your business listed on this page?

 If your business provides an interesting product or service to pilots, flight crews, aircraft, or users of the Triple R Ranch Airport, you should consider listing it here.  To start the listing process, click on the button below
 
Add a business
 

Other Pages about Triple R Ranch Airport

Update a link
 
Copyright © AirNav, LLC. All rights reserved. Privacy Policy  Contact